Time;durP1;ratioP1;P1;durP2;ratioP2;P2;SDS_P1;SDS_P2;PMS_P1;PMS_P2;Temp;Humidity;BMP_temperature;BMP_pressure;BME280_temperature;BME280_humidity;BME280_pressure;Samples;Min_cycle;Max_cycle;Signal;HPM_P1;HPM_P2
2021/09/01 00:01:51;;;;;;;;;33.00;25.50;;;;;17.81;68.36;102374.44;5032722;28;47142;-76
2021/09/01 00:04:16;;;;;;;;;30.50;26.50;;;;;17.80;69.00;102378.03;5035407;28;45500;-75
2021/09/01 00:06:42;;;;;;;;;29.25;26.25;;;;;17.78;68.95;102379.91;5032729;28;45499;-75
2021/09/01 00:09:07;;;;;;;;;33.50;27.00;;;;;17.78;69.14;102382.56;5032851;28;56297;-75
2021/09/01 00:11:32;;;;;;;;;38.00;28.25;;;;;17.67;68.96;102371.53;5032419;28;45566;-76
2021/09/01 00:13:58;;;;;;;;;24.00;21.75;;;;;17.65;69.80;102376.06;5035855;28;45602;-76
2021/09/01 00:16:26;;;;;;;;;33.00;30.75;;;;;17.62;69.65;102368.22;5035899;28;47331;-76
2021/09/01 00:18:53;;;;;;;;;37.00;30.00;;;;;17.67;70.29;102382.16;5036111;28;45522;-75
2021/09/01 00:21:18;;;;;;;;;42.00;33.25;;;;;17.64;70.21;102384.94;5035756;28;45471;-75
2021/09/01 00:23:44;;;;;;;;;38.50;32.25;;;;;17.64;70.65;102387.59;5035968;28;45385;-75
2021/09/01 00:26:09;;;;;;;;;32.25;27.75;;;;;17.56;70.01;102389.78;5017770;28;56643;-75
2021/09/01 00:28:34;;;;;;;;;34.00;25.75;;;;;17.57;70.53;102387.03;5035570;28;58168;-76
2021/09/01 00:30:59;;;;;;;;;32.75;27.50;;;;;17.50;70.02;102384.75;5018466;28;45500;-75
2021/09/01 00:33:25;;;;;;;;;34.25;28.25;;;;;17.16;70.77;102331.31;5036000;28;45535;-75
2021/09/01 00:35:50;;;;;;;;;31.00;27.25;;;;;17.43;70.76;102381.47;5039606;28;45444;-75
2021/09/01 00:38:15;;;;;;;;;34.33;29.67;;;;;17.47;70.80;102383.06;5034571;28;58734;-76
2021/09/01 00:40:40;;;;;;;;;40.25;30.00;;;;;17.44;71.29;102385.91;5035388;28;48197;-76
2021/09/01 00:43:07;;;;;;;;;37.00;30.00;;;;;17.37;71.09;102377.31;5036047;28;56555;-75
2021/09/01 00:45:32;;;;;;;;;38.00;32.50;;;;;17.36;71.53;102370.28;5034507;28;61905;-75
2021/09/01 00:47:57;;;;;;;;;46.75;34.00;;;;;17.31;71.54;102371.41;5036025;28;45443;-76
2021/09/01 00:50:22;;;;;;;;;41.50;33.25;;;;;17.34;71.41;102380.13;5045384;28;45431;-75
2021/09/01 00:52:48;;;;;;;;;45.00;33.50;;;;;17.33;71.63;102382.84;5017901;28;45409;-76
2021/09/01 00:55:14;;;;;;;;;42.00;33.75;;;;;17.25;71.86;102383.19;5036214;28;45336;-76
2021/09/01 00:57:41;;;;;;;;;41.00;35.75;;;;;17.28;72.20;102385.72;5035136;28;45509;-75
2021/09/01 01:00:10;;;;;;;;;38.50;31.50;;;;;17.27;72.38;102391.09;5035145;28;45476;-76
2021/09/01 01:02:39;;;;;;;;;35.25;32.25;;;;;17.25;71.46;102388.50;5035523;28;45482;-76
2021/09/01 01:05:04;;;;;;;;;36.50;30.25;;;;;17.22;72.25;102384.16;5035447;28;45492;-75
2021/09/01 01:07:29;;;;;;;;;30.75;24.00;;;;;17.21;72.28;102392.22;5035192;28;45325;-76
2021/09/01 01:09:55;;;;;;;;;39.25;31.00;;;;;17.19;72.78;102388.78;5035890;28;45752;-75
2021/09/01 01:12:20;;;;;;;;;41.67;31.00;;;;;17.17;71.77;102386.19;5034356;28;51223;-75
2021/09/01 01:14:48;;;;;;;;;35.25;30.75;;;;;17.15;72.84;102390.69;5034113;28;46163;-76
2021/09/01 01:17:16;;;;;;;;;38.75;33.00;;;;;17.13;72.52;102387.25;5035046;28;45932;-75
2021/09/01 01:19:43;;;;;;;;;32.25;29.00;;;;;17.07;72.27;102389.31;5035808;28;45498;-76
2021/09/01 01:22:13;;;;;;;;;36.00;30.25;;;;;17.07;72.16;102389.31;5035644;28;45328;-75
2021/09/01 01:24:48;;;;;;;;;33.00;27.75;;;;;17.03;72.42;102385.94;5034230;28;45470;-75
2021/09/01 01:27:34;;;;;;;;;36.75;31.00;;;;;16.97;72.86;102374.72;5035149;28;45769;-75
2021/09/01 01:30:20;;;;;;;;;35.25;27.50;;;;;16.97;73.17;102382.69;5034750;28;45620;-76
2021/09/01 01:32:49;;;;;;;;;29.00;26.25;;;;;16.94;73.47;102379.22;5027010;28;45309;-75
2021/09/01 01:35:23;;;;;;;;;34.50;28.25;;;;;16.92;73.48;102380.25;5017209;28;47549;-76
2021/09/01 01:37:48;;;;;;;;;29.25;29.25;;;;;16.89;73.23;102375.91;5025568;28;45543;-76
2021/09/01 01:40:14;;;;;;;;;33.00;27.50;;;;;16.86;73.76;102378.72;5035503;28;45448;-76
2021/09/01 01:42:41;;;;;;;;;33.00;27.00;;;;;16.84;73.83;102375.25;5034270;28;47499;-75
2021/09/01 01:45:07;;;;;;;;;25.50;24.25;;;;;16.80;73.74;102375.44;5035300;28;45576;-76
2021/09/01 01:47:33;;;;;;;;;31.50;25.50;;;;;16.78;73.76;102383.47;5034948;28;45796;-75
2021/09/01 01:49:58;;;;;;;;;33.00;30.50;;;;;16.76;74.08;102376.47;5034767;28;45502;-76
2021/09/01 01:52:23;;;;;;;;;34.75;29.50;;;;;16.73;74.35;102382.81;5035528;28;45458;-76
2021/09/01 01:54:49;;;;;;;;;34.00;27.00;;;;;16.70;74.02;102383.78;5034671;28;51718;-76
2021/09/01 01:57:14;;;;;;;;;33.50;26.50;;;;;16.65;74.24;102374.25;5033876;28;53081;-76
2021/09/01 01:59:39;;;;;;;;;30.75;28.75;;;;;16.56;74.50;102370.22;5034349;28;50562;-75
2021/09/01 02:02:05;;;;;;;;;25.50;24.00;;;;;16.61;73.84;102380.66;5034486;28;45653;-75
2021/09/01 02:04:30;;;;;;;;;32.75;28.75;;;;;16.60;74.18;102386.84;5033687;28;46201;-77
2021/09/01 02:06:55;;;;;;;;;33.00;25.75;;;;;16.49;74.30;102368.72;5034273;28;45476;-76
2021/09/01 02:09:21;;;;;;;;;32.50;27.75;;;;;16.55;74.92;102384.41;5034551;28;45366;-76
2021/09/01 02:11:46;;;;;;;;;30.75;28.25;;;;;16.54;74.48;102381.81;5033879;28;45539;-75
2021/09/01 02:14:11;;;;;;;;;32.75;26.25;;;;;16.53;74.78;102385.41;5034321;28;48566;-76
2021/09/01 02:16:37;;;;;;;;;34.00;27.25;;;;;16.51;75.27;102387.25;5034388;28;45463;-75
2021/09/01 02:19:02;;;;;;;;;30.75;26.00;;;;;16.51;74.72;102393.44;5035626;28;45327;-75
2021/09/01 02:21:27;;;;;;;;;29.25;26.00;;;;;16.47;74.79;102388.31;5033977;28;45491;-75
2021/09/01 02:23:52;;;;;;;;;30.00;25.50;;;;;16.46;75.60;102392.75;5014921;28;55860;-76
2021/09/01 02:26:18;;;;;;;;;33.00;30.00;;;;;16.37;75.59;102383.38;5034241;28;45396;-75
2021/09/01 02:28:43;;;;;;;;;35.75;28.00;;;;;16.41;74.60;102390.28;5034059;28;45449;-75
2021/09/01 02:31:09;;;;;;;;;36.00;27.00;;;;;16.39;75.47;102402.78;5034629;28;45352;-76
2021/09/01 02:33:34;;;;;;;;;34.25;30.00;;;;;16.38;75.61;102405.47;5033718;28;45620;-76
2021/09/01 02:35:59;;;;;;;;;30.50;27.75;;;;;16.36;75.36;102391.41;5033806;28;45523;-76
2021/09/01 02:38:25;;;;;;;;;31.50;28.50;;;;;16.36;74.69;102396.72;5034123;28;45487;-75
2021/09/01 02:40:50;;;;;;;;;38.25;31.00;;;;;16.24;75.46;102376.00;5033341;28;45407;-75
2021/09/01 02:43:15;;;;;;;;;37.75;31.00;;;;;16.37;75.40;102404.59;5034364;28;46074;-75
2021/09/01 02:45:40;;;;;;;;;40.00;31.50;;;;;16.39;76.26;102402.78;5034008;28;45352;-75
2021/09/01 02:48:06;;;;;;;;;43.25;33.75;;;;;16.44;75.66;102402.56;5033618;28;45309;-76
2021/09/01 02:50:31;;;;;;;;;41.75;34.25;;;;;16.48;75.05;102401.50;5016110;28;45651;-75
2021/09/01 02:52:56;;;;;;;;;42.50;34.00;;;;;16.52;75.39;102396.94;5033639;28;46163;-75
2021/09/01 02:55:22;;;;;;;;;45.00;33.75;;;;;16.53;75.59;102398.66;5033478;28;45417;-75
2021/09/01 02:57:47;;;;;;;;;35.00;31.25;;;;;16.47;76.11;102381.22;5033774;28;47029;-76
2021/09/01 03:00:13;;;;;;;;;41.50;33.75;;;;;16.56;76.13;102398.56;5033925;28;45949;-75
2021/09/01 03:02:38;;;;;;;;;43.50;36.00;;;;;16.58;75.41;102404.66;5033681;28;46097;-75
2021/09/01 03:05:04;;;;;;;;;48.00;36.75;;;;;16.64;75.42;102404.38;5039279;28;45488;-76
2021/09/01 03:07:29;;;;;;;;;48.50;37.00;;;;;16.66;75.37;102405.22;5033562;28;45510;-76
2021/09/01 03:09:56;;;;;;;;;50.50;39.00;;;;;16.70;75.83;102409.44;5033516;28;45392;-76
2021/09/01 03:12:22;;;;;;;;;48.50;36.00;;;;;16.72;75.04;102404.97;5033352;28;46155;-75
2021/09/01 03:14:47;;;;;;;;;49.75;37.50;;;;;16.73;75.39;102401.38;5033621;28;45330;-76
2021/09/01 03:17:12;;;;;;;;;48.00;36.75;;;;;16.75;75.13;102402.19;5033790;28;45438;-76
2021/09/01 03:19:37;;;;;;;;;48.25;37.00;;;;;16.77;75.17;102394.16;5033313;28;45407;-76
2021/09/01 03:22:03;;;;;;;;;52.00;40.33;;;;;16.80;74.35;102396.69;5033252;28;66108;-76
2021/09/01 03:24:28;;;;;;;;;47.75;38.25;;;;;16.82;75.08;102393.03;5032975;28;45406;-76
2021/09/01 03:26:54;;;;;;;;;51.75;39.75;;;;;16.84;74.99;102391.16;5033564;28;45419;-76
2021/09/01 03:29:19;;;;;;;;;57.50;43.00;;;;;16.85;75.57;102394.69;5033395;28;45374;-75
2021/09/01 03:31:44;;;;;;;;;48.50;37.75;;;;;16.83;75.05;102391.25;5033613;28;52513;-76
2021/09/01 03:34:10;;;;;;;;;38.50;33.50;;;;;16.87;74.95;102395.50;5032937;28;45454;-76
2021/09/01 03:36:35;;;;;;;;;48.50;36.00;;;;;16.82;75.25;102387.72;5033327;28;45772;-76
2021/09/01 03:39:01;;;;;;;;;52.50;40.25;;;;;16.90;74.59;102390.03;5032740;28;50611;-75
2021/09/01 03:41:26;;;;;;;;;50.25;37.00;;;;;16.84;74.70;102377.91;5033103;28;46358;-76
2021/09/01 03:43:52;;;;;;;;;48.75;39.50;;;;;16.87;75.02;102391.06;5033049;28;45381;-76
2021/09/01 03:46:17;;;;;;;;;49.00;37.00;;;;;16.74;75.15;102370.38;5034694;28;45396;-75
2021/09/01 03:48:43;;;;;;;;;51.00;39.25;;;;;16.88;75.00;102390.13;5036814;28;45578;-76
2021/09/01 03:51:08;;;;;;;;;50.75;40.00;;;;;16.88;74.93;102395.44;5035135;28;46912;-76
2021/09/01 03:53:33;;;;;;;;;51.25;40.75;;;;;16.87;74.76;102392.84;5035976;28;45381;-75
2021/09/01 03:55:58;;;;;;;;;50.75;40.00;;;;;16.89;74.82;102394.50;5036943;28;45398;-76
2021/09/01 03:58:24;;;;;;;;;49.00;39.00;;;;;16.86;75.23;102384.03;5037020;28;45368;-76
2021/09/01 04:00:49;;;;;;;;;48.00;37.50;;;;;16.92;74.63;102388.19;5036760;28;46313;-75
2021/09/01 04:03:14;;;;;;;;;39.00;34.00;;;;;16.91;74.70;102389.09;5036383;28;45281;-76
2021/09/01 04:05:40;;;;;;;;;44.33;34.33;;;;;16.88;74.52;102386.59;5036694;28;59758;-76
2021/09/01 04:08:05;;;;;;;;;45.00;36.00;;;;;16.87;74.51;102377.78;5035164;28;45554;-76
2021/09/01 04:10:31;;;;;;;;;38.75;32.25;;;;;16.84;74.58;102379.69;5035727;28;45931;-76
2021/09/01 04:12:56;;;;;;;;;46.75;33.25;;;;;16.78;74.76;102370.19;5036827;28;52249;-75
2021/09/01 04:15:21;;;;;;;;;36.75;31.00;;;;;16.89;74.79;102383.88;5036144;28;45469;-75
2021/09/01 04:17:47;;;;;;;;;37.00;31.50;;;;;16.85;74.36;102379.63;5039394;28;45471;-75
2021/09/01 04:20:12;;;;;;;;;32.67;27.33;;;;;16.85;74.77;102382.28;5034980;28;62651;-75
2021/09/01 04:22:37;;;;;;;;;33.75;30.75;;;;;16.87;74.85;102391.06;5035772;28;45567;-76
2021/09/01 04:25:04;;;;;;;;;31.25;26.50;;;;;16.85;74.60;102386.72;5036473;28;45647;-75
2021/09/01 04:27:29;;;;;;;;;32.50;28.25;;;;;16.88;74.63;102392.78;5035719;28;45599;-76
2021/09/01 04:29:54;;;;;;;;;33.75;25.75;;;;;16.79;74.38;102376.38;5035849;28;46165;-76
2021/09/01 04:32:20;;;;;;;;;31.75;26.00;;;;;16.87;75.05;102388.41;5035651;28;45643;-75
2021/09/01 04:34:45;;;;;;;;;33.50;26.00;;;;;16.89;74.54;102388.31;5019388;28;45876;-75
2021/09/01 04:37:11;;;;;;;;;33.25;26.25;;;;;16.89;74.68;102393.63;5036037;28;45530;-75
2021/09/01 04:39:36;;;;;;;;;26.50;23.25;;;;;16.87;74.79;102398.16;5035698;28;45459;-75
2021/09/01 04:42:02;;;;;;;;;33.25;26.75;;;;;16.85;74.93;102394.69;5016492;28;52490;-75
2021/09/01 04:44:28;;;;;;;;;28.75;25.25;;;;;16.85;74.61;102397.34;5035847;28;45264;-75
2021/09/01 04:46:53;;;;;;;;;31.25;26.25;;;;;16.83;74.55;102393.91;5035823;28;45319;-75
2021/09/01 04:49:18;;;;;;;;;27.00;24.00;;;;;16.86;74.71;102407.91;5014890;28;47133;-76
2021/09/01 04:51:44;;;;;;;;;27.25;25.75;;;;;16.78;74.69;102394.09;5034909;28;45481;-75
2021/09/01 04:54:09;;;;;;;;;26.25;22.75;;;;;16.85;74.76;102406.16;5035331;28;45596;-75
2021/09/01 04:56:35;;;;;;;;;30.00;26.25;;;;;16.87;74.11;102417.59;5035590;28;45301;-76
2021/09/01 04:59:00;;;;;;;;;27.75;25.00;;;;;16.77;74.06;102386.19;5034819;28;46272;-75
2021/09/01 05:01:25;;;;;;;;;33.00;25.25;;;;;16.90;74.18;102414.81;5035397;28;53418;-75
2021/09/01 05:03:51;;;;;;;;;31.50;26.00;;;;;16.90;74.39;102416.59;5035936;28;45582;-75
2021/09/01 05:06:16;;;;;;;;;29.25;26.00;;;;;16.91;73.96;102413.91;5034557;28;45548;-75
2021/09/01 05:08:41;;;;;;;;;27.25;24.75;;;;;16.72;74.69;102369.59;5034799;28;46177;-75
2021/09/01 05:11:06;;;;;;;;;28.00;24.50;;;;;16.89;74.29;102407.78;5034454;28;59265;-75
2021/09/01 05:13:32;;;;;;;;;26.50;22.50;;;;;16.89;74.21;102402.47;5035797;28;45463;-75
2021/09/01 05:15:57;;;;;;;;;28.50;23.50;;;;;16.88;73.92;102397.22;5034628;28;49429;-75
2021/09/01 05:18:22;;;;;;;;;28.75;24.00;;;;;16.91;74.40;102397.97;5033616;28;49761;-76
2021/09/01 05:20:51;;;;;;;;;26.75;21.00;;;;;17.01;73.87;102405.50;5034517;28;45508;-75
2021/09/01 05:23:17;;;;;;;;;25.00;21.50;;;;;17.00;73.83;102409.97;5034901;28;45372;-75
2021/09/01 05:26:14;;;;;;;;;25.00;21.00;;;;;17.00;74.04;102407.31;5016765;28;45799;-76
2021/09/01 05:28:39;;;;;;;;;25.00;24.00;;;;;17.02;74.03;102408.13;5018131;28;46288;-75
2021/09/01 05:31:07;;;;;;;;;26.25;22.00;;;;;17.04;74.42;102416.00;5035841;28;45371;-75
2021/09/01 05:33:36;;;;;;;;;32.50;24.75;;;;;16.98;74.47;102400.34;5034142;28;45521;-76
2021/09/01 05:36:05;;;;;;;;;26.50;23.75;;;;;17.05;73.71;102409.78;5034697;28;46986;-75
2021/09/01 05:38:33;;;;;;;;;24.25;17.25;;;;;16.98;73.80;102410.97;5034577;28;45494;-75
2021/09/01 05:40:59;;;;;;;;;33.75;25.25;;;;;17.00;74.08;102417.06;5034241;28;45864;-76
2021/09/01 05:43:26;;;;;;;;;34.50;25.75;;;;;17.00;73.97;102417.06;5035015;28;45362;-76
2021/09/01 05:45:51;;;;;;;;;34.00;30.50;;;;;17.03;74.28;102423.13;5034684;28;45416;-76
2021/09/01 05:48:22;;;;;;;;;34.00;26.00;;;;;17.06;74.01;102432.75;5033893;28;46408;-75
2021/09/01 05:50:55;;;;;;;;;39.75;29.25;;;;;17.07;73.72;102431.81;5033222;28;45887;-75
2021/09/01 05:53:22;;;;;;;;;32.75;28.00;;;;;17.09;74.00;102435.28;5034548;28;45460;-75
2021/09/01 05:55:53;;;;;;;;;35.50;29.50;;;;;17.10;74.22;102439.66;5025539;28;45502;-75
2021/09/01 05:58:19;;;;;;;;;32.00;30.50;;;;;17.13;74.00;102431.56;5031432;28;45811;-75
2021/09/01 06:00:52;;;;;;;;;34.25;29.75;;;;;17.13;73.39;102431.56;5034407;28;45898;-76
2021/09/01 06:03:26;;;;;;;;;43.00;33.25;;;;;17.19;73.30;102433.94;5034392;28;45629;-76
2021/09/01 06:05:56;;;;;;;;;42.50;34.25;;;;;17.14;73.66;102433.28;5033533;28;45358;-75
2021/09/01 06:08:24;;;;;;;;;47.75;32.75;;;;;17.16;73.70;102432.28;5038148;28;45454;-75
2021/09/01 06:10:54;;;;;;;;;36.75;32.50;;;;;17.28;73.43;102438.88;5007284;28;46017;-75
2021/09/01 06:13:19;;;;;;;;;49.25;34.00;;;;;17.28;73.49;102440.63;5032788;28;45868;-76
2021/09/01 06:15:45;;;;;;;;;47.50;34.50;;;;;17.30;73.54;102436.13;5034548;28;45265;-75
2021/09/01 06:18:11;;;;;;;;;39.75;30.00;;;;;17.32;73.26;102435.13;5033417;28;46195;-75
2021/09/01 06:20:37;;;;;;;;;36.50;31.00;;;;;17.39;73.16;102430.41;5034231;28;45537;-75
2021/09/01 06:23:04;;;;;;;;;33.00;28.50;;;;;17.42;72.84;102424.94;5040883;28;45495;-76
2021/09/01 06:25:29;;;;;;;;;31.25;26.50;;;;;17.44;72.62;102425.75;5033204;28;45547;-76
2021/09/01 06:27:55;;;;;;;;;34.25;28.25;;;;;17.46;72.84;102426.53;5034442;28;45559;-76
2021/09/01 06:30:21;;;;;;;;;32.00;24.00;;;;;17.39;73.08;102415.34;5033645;28;45578;-80
2021/09/01 06:32:47;;;;;;;;;27.25;25.50;;;;;17.54;72.64;102419.09;5033671;28;45394;-80
2021/09/01 06:35:12;;;;;;;;;32.75;25.50;;;;;17.59;72.67;102422.41;5033622;28;45528;-77
2021/09/01 06:37:39;;;;;;;;;27.75;23.75;;;;;17.63;72.34;102417.78;5048370;28;46224;-76
2021/09/01 06:40:08;;;;;;;;;28.50;25.50;;;;;17.62;72.64;102410.75;5033503;28;45507;-76
2021/09/01 06:42:34;;;;;;;;;28.25;25.75;;;;;17.74;71.98;102415.53;5033294;28;45518;-76
2021/09/01 06:44:59;;;;;;;;;32.00;25.25;;;;;17.81;72.00;102418.78;5033231;28;45458;-75
2021/09/01 06:47:25;;;;;;;;;26.00;21.25;;;;;17.87;71.46;102413.19;5033055;28;45523;-76
2021/09/01 06:49:50;;;;;;;;;26.75;25.00;;;;;17.83;71.43;102404.47;5015452;28;45557;-76
2021/09/01 06:52:16;;;;;;;;;24.75;20.00;;;;;17.93;71.63;102418.22;5034497;28;45372;-76
2021/09/01 06:54:41;;;;;;;;;31.50;25.75;;;;;17.98;71.33;102421.50;5032877;28;45335;-74
2021/09/01 06:57:06;;;;;;;;;34.25;30.00;;;;;18.02;71.31;102417.78;5032826;28;45781;-75
2021/09/01 06:59:32;;;;;;;;;37.75;30.75;;;;;18.13;71.13;102431.44;5033829;28;47828;-75
2021/09/01 07:01:57;;;;;;;;;36.25;32.00;;;;;18.09;71.13;102410.38;5033356;28;45512;-78
2021/09/01 07:04:22;;;;;;;;;45.50;33.25;;;;;18.25;70.82;102427.31;5032052;28;49748;-76
2021/09/01 07:06:48;;;;;;;;;43.25;33.00;;;;;18.30;71.11;102427.09;5033534;28;45426;-75
2021/09/01 07:09:13;;;;;;;;;42.50;35.50;;;;;18.34;71.13;102426.88;5034604;28;45452;-76
2021/09/01 07:11:38;;;;;;;;;44.75;34.00;;;;;18.42;70.48;102416.69;5033022;28;45542;-76
2021/09/01 07:14:06;;;;;;;;;32.50;31.25;;;;;18.49;70.53;102415.47;5032794;28;45501;-76
2021/09/01 07:16:31;;;;;;;;;44.00;33.25;;;;;18.54;70.26;102412.59;5039279;28;46043;-75
2021/09/01 07:18:56;;;;;;;;;40.50;31.25;;;;;18.71;70.19;102412.63;5034563;28;45475;-75
2021/09/01 07:21:22;;;;;;;;;45.50;31.50;;;;;18.87;69.96;102404.72;5036000;28;45449;-75
2021/09/01 07:23:47;;;;;;;;;42.50;33.25;;;;;19.20;69.61;102398.56;5036978;28;45447;-75
2021/09/01 07:26:13;;;;;;;;;44.00;33.00;;;;;19.43;68.99;102400.88;5037141;28;45370;-75
2021/09/01 07:28:40;;;;;;;;;46.00;35.75;;;;;19.58;68.62;102401.00;5036117;28;45783;-75
2021/09/01 07:31:06;;;;;;;;;40.50;33.00;;;;;19.70;68.28;102398.56;5037090;28;45460;-75
2021/09/01 07:33:31;;;;;;;;;43.75;32.50;;;;;19.86;67.61;102403.03;5043264;28;45438;-76
2021/09/01 07:35:57;;;;;;;;;43.75;31.50;;;;;19.94;66.96;102388.34;5043180;28;45793;-76
2021/09/01 07:38:22;;;;;;;;;38.00;29.75;;;;;20.14;66.84;102407.69;5038008;28;45471;-76
2021/09/01 07:40:48;;;;;;;;;35.00;31.00;;;;;20.23;66.27;102399.16;5039565;28;45317;-75
2021/09/01 07:43:13;;;;;;;;;37.25;30.25;;;;;20.31;66.22;102396.91;5035925;28;45487;-75
2021/09/01 07:45:39;;;;;;;;;43.00;31.50;;;;;20.54;65.71;102408.97;5036232;28;45656;-76
2021/09/01 07:48:04;;;;;;;;;39.25;31.50;;;;;20.80;65.19;102396.72;5018375;28;45481;-75
2021/09/01 07:50:31;;;;;;;;;30.25;26.75;;;;;21.06;64.75;102409.38;5040183;28;45428;-75
2021/09/01 07:52:58;;;;;;;;;33.75;25.50;;;;;21.22;64.46;102414.66;5036227;28;45427;-76
2021/09/01 07:55:24;;;;;;;;;27.25;24.25;;;;;21.42;63.50;102413.47;5036119;28;45900;-75
2021/09/01 07:57:49;;;;;;;;;25.25;22.75;;;;;21.59;63.76;102397.22;5037161;28;45461;-77
2021/09/01 08:00:15;;;;;;;;;25.25;22.00;;;;;21.77;62.23;102415.72;5035977;28;45349;-76
2021/09/01 08:02:41;;;;;;;;;24.75;19.00;;;;;21.81;62.31;102401.19;5035705;28;45300;-76
2021/09/01 08:05:07;;;;;;;;;32.00;26.50;;;;;21.98;61.93;102406.34;5034272;28;47659;-76
2021/09/01 08:07:33;;;;;;;;;22.25;19.75;;;;;22.00;61.60;102411.59;5048053;28;45919;-76
2021/09/01 08:09:59;;;;;;;;;30.50;22.00;;;;;22.09;61.44;102408.31;5036673;28;45398;-75
2021/09/01 08:12:24;;;;;;;;;20.00;16.75;;;;;22.11;60.33;102398.41;5034286;28;55895;-76
2021/09/01 08:14:50;;;;;;;;;28.75;20.00;;;;;22.28;60.65;102408.00;5034181;28;45446;-77
2021/09/01 08:17:16;;;;;;;;;22.25;17.25;;;;;22.31;60.72;102379.19;5035926;28;45950;-77
2021/09/01 08:19:42;;;;;;;;;18.50;16.25;;;;;22.52;60.10;102410.88;5035834;28;45384;-77
2021/09/01 08:22:08;;;;;;;;;22.25;19.00;;;;;22.55;59.38;102414.22;5031937;28;45618;-76
2021/09/01 08:24:37;;;;;;;;;19.00;17.50;;;;;22.86;60.04;102415.66;5035298;28;47785;-77
2021/09/01 08:27:03;;;;;;;;;25.50;16.75;;;;;23.13;60.09;102412.94;5035447;28;45790;-77
2021/09/01 08:29:28;;;;;;;;;23.00;19.50;;;;;23.18;58.93;102421.53;5027212;28;45510;-77
2021/09/01 08:31:53;;;;;;;;;25.50;20.75;;;;;23.30;57.82;102414.44;5039701;28;56416;-78
2021/09/01 08:34:19;;;;;;;;;19.50;16.50;;;;;23.32;57.70;102401.78;5036697;28;57368;-77
2021/09/01 08:36:44;;;;;;;;;27.25;20.25;;;;;23.50;56.97;102417.56;5035916;28;45590;-77
2021/09/01 08:39:09;;;;;;;;;19.50;16.50;;;;;23.75;57.14;102416.66;5035007;28;52765;-78
2021/09/01 08:41:36;;;;;;;;;19.00;17.00;;;;;23.89;56.33;102419.22;5033913;28;51758;-78
2021/09/01 08:44:02;;;;;;;;;45.00;35.50;;;;;24.13;56.08;102411.22;5034349;28;46217;-78
2021/09/01 08:46:31;;;;;;;;;25.50;19.75;;;;;24.73;55.22;102423.72;5033627;28;45582;-77
2021/09/01 08:48:59;;;;;;;;;22.50;16.00;;;;;24.75;54.31;102411.03;5033888;28;45662;-78
2021/09/01 08:51:24;;;;;;;;;20.00;17.50;;;;;24.70;55.14;102423.97;5033942;28;45458;-77
2021/09/01 08:53:49;;;;;;;;;20.00;19.25;;;;;24.95;54.55;102420.22;5036294;28;47194;-77
2021/09/01 08:56:15;;;;;;;;;24.00;20.00;;;;;25.25;54.04;102415.19;5037761;28;45699;-76
2021/09/01 08:58:40;;;;;;;;;26.00;19.75;;;;;26.51;53.60;102423.88;5022802;28;45677;-77
2021/09/01 09:01:05;;;;;;;;;20.50;18.00;;;;;28.26;50.16;102414.84;5032064;28;48312;-78
2021/09/01 09:03:31;;;;;;;;;20.50;19.75;;;;;29.76;49.63;102435.84;5030608;28;45494;-79
2021/09/01 09:06:05;;;;;;;;;16.50;14.25;;;;;30.36;44.92;102420.78;5029412;28;45565;-75
2021/09/01 09:08:32;;;;;;;;;19.00;15.25;;;;;30.42;46.26;102417.44;5028816;28;46557;-78
2021/09/01 09:10:58;;;;;;;;;18.25;15.25;;;;;31.07;47.18;102421.72;5039362;28;45925;-77
2021/09/01 09:13:34;;;;;;;;;20.25;18.00;;;;;31.79;44.09;102414.94;5033224;28;45531;-77
2021/09/01 09:16:08;;;;;;;;;17.50;15.25;;;;;32.27;43.84;102409.84;5041275;28;45735;-77
2021/09/01 09:18:35;;;;;;;;;20.25;16.75;;;;;32.56;42.20;102412.94;5034446;28;45472;-76
2021/09/01 09:21:18;;;;;;;;;19.00;16.00;;;;;33.14;40.43;102392.81;5033344;28;45622;-76
2021/09/01 09:23:45;;;;;;;;;17.00;14.00;;;;;33.60;40.27;102417.53;5035683;28;45701;-75
2021/09/01 09:26:21;;;;;;;;;15.75;14.75;;;;;33.85;40.73;102406.53;5031871;28;45943;-77
2021/09/01 09:29:14;;;;;;;;;18.00;15.75;;;;;33.40;39.71;102410.78;5034566;28;45379;-77
2021/09/01 09:31:42;;;;;;;;;18.00;15.00;;;;;33.00;39.55;102417.22;5036406;28;45526;-74
2021/09/01 09:34:10;;;;;;;;;19.75;16.00;;;;;32.86;38.92;102414.13;5033277;28;46259;-77
2021/09/01 09:36:36;;;;;;;;;16.75;15.25;;;;;32.70;38.78;102408.69;5031267;28;45616;-78
2021/09/01 09:39:02;;;;;;;;;18.50;16.00;;;;;32.49;39.45;102406.47;5032314;28;45553;-77
2021/09/01 09:41:28;;;;;;;;;13.75;13.00;;;;;32.35;39.44;102409.84;5032305;28;45499;-76
2021/09/01 09:44:04;;;;;;;;;16.25;14.75;;;;;32.22;39.59;102389.44;5034093;28;46182;-78
2021/09/01 09:46:31;;;;;;;;;15.50;14.75;;;;;32.19;39.89;102397.91;5021856;28;45826;-76
2021/09/01 09:49:06;;;;;;;;;16.75;14.75;;;;;32.09;40.00;102393.66;5018724;28;45418;-77
2021/09/01 09:51:41;;;;;;;;;15.25;12.25;;;;;32.13;39.03;102400.47;5034987;28;46295;-79
2021/09/01 09:54:18;;;;;;;;;14.50;11.75;;;;;32.24;38.57;102405.56;5036302;28;46481;-80
2021/09/01 09:56:45;;;;;;;;;14.50;14.00;;;;;32.07;38.93;102396.56;5036389;28;45620;-79
2021/09/01 09:59:16;;;;;;;;;14.75;13.25;;;;;32.16;39.06;102402.88;5035519;28;45632;-79
2021/09/01 10:01:43;;;;;;;;;13.50;12.00;;;;;32.14;39.30;102410.31;5035931;28;45514;-77
2021/09/01 10:04:09;;;;;;;;;18.50;14.50;;;;;32.06;38.74;102404.88;5036163;28;45728;-75
2021/09/01 10:06:34;;;;;;;;;83.50;73.50;;;;;32.28;39.41;102409.66;5031906;28;45337;-75
2021/09/01 10:09:02;;;;;;;;;13.00;13.00;;;;;32.69;38.85;102402.41;5035673;28;46036;-75
2021/09/01 10:11:28;;;;;;;;;14.75;13.75;;;;;33.16;37.83;102401.66;5033172;28;45402;-75
2021/09/01 10:13:54;;;;;;;;;16.25;13.25;;;;;33.66;37.39;102397.75;5036526;28;46072;-75
2021/09/01 10:16:19;;;;;;;;;15.00;15.00;;;;;34.20;36.31;102396.94;5034403;28;45509;-77
2021/09/01 10:18:58;;;;;;;;;16.00;14.33;;;;;34.52;35.67;102393.97;5037584;28;45815;-77
2021/09/01 10:21:26;;;;;;;;;14.25;11.75;;;;;34.40;36.35;102389.94;5031984;28;46050;-77
2021/09/01 10:23:52;;;;;;;;;15.50;14.25;;;;;33.98;36.87;102395.88;5013193;28;48273;-77
2021/09/01 10:26:29;;;;;;;;;14.25;12.00;;;;;33.46;36.89;102386.44;5033365;28;45556;-76
2021/09/01 10:28:57;;;;;;;;;16.50;14.50;;;;;33.21;36.39;102393.81;5019309;28;45558;-76
2021/09/01 10:31:25;;;;;;;;;15.00;13.25;;;;;32.93;36.80;102381.63;5033886;28;45329;-76
2021/09/01 10:33:53;;;;;;;;;15.00;13.00;;;;;32.78;37.11;102377.88;5034011;28;46342;-77
2021/09/01 10:36:25;;;;;;;;;18.00;15.75;;;;;32.66;37.92;102375.50;5033759;28;45609;-75
2021/09/01 10:38:51;;;;;;;;;14.75;12.75;;;;;32.50;37.78;102382.84;5032986;28;45398;-76
2021/09/01 10:41:30;;;;;;;;;18.75;15.00;;;;;31.92;37.68;102363.72;5046297;28;45432;-76
2021/09/01 10:44:10;;;;;;;;;18.75;14.00;;;;;31.60;38.35;102369.88;5001243;28;46450;-77
2021/09/01 10:46:51;;;;;;;;;14.75;13.00;;;;;31.38;38.65;102356.91;5037551;28;45782;-76
2021/09/01 10:49:26;;;;;;;;;16.25;16.00;;;;;31.20;38.41;102354.22;5034023;28;45486;-77
2021/09/01 10:52:02;;;;;;;;;15.75;15.00;;;;;31.01;38.02;102360.75;5036957;28;45570;-75
2021/09/01 10:54:30;;;;;;;;;16.75;14.75;;;;;30.88;38.71;102357.63;5034437;28;46276;-75
2021/09/01 10:56:56;;;;;;;;;16.00;13.25;;;;;30.80;39.13;102357.53;5027403;28;45778;-74
2021/09/01 10:59:26;;;;;;;;;11.75;10.75;;;;;30.69;38.15;102364.06;5033131;28;45392;-76
2021/09/01 11:02:21;;;;;;;;;16.00;14.25;;;;;30.51;38.32;102355.97;5033057;28;45439;-75
2021/09/01 11:04:49;;;;;;;;;14.00;9.50;;;;;30.20;38.91;102352.81;5036112;28;47014;-74
2021/09/01 11:07:20;;;;;;;;;16.25;13.25;;;;;30.12;39.32;102356.31;5041138;28;45560;-75
2021/09/01 11:09:50;;;;;;;;;17.75;15.75;;;;;30.08;39.90;102345.91;5033653;28;45519;-77